Time;durP1;ratioP1;P1;durP2;ratioP2;P2;SDS_P1;SDS_P2;PMS_P1;PMS_P2;Temp;Humidity;BMP_temperature;BMP_pressure;BME280_temperature;BME280_humidity;BME280_pressure;Samples;Min_cycle;Max_cycle;Signal;HPM_P1;HPM_P2
2023/05/30 00:01:23;;;;;;;4.18;1.27;;;20.10;99.30;;;;;;4590323;19;20015;-26
2023/05/30 00:02:55;;;;;;;3.15;1.23;;;20.10;99.30;;;;;;4588823;19;20038;-26
2023/05/30 00:04:26;;;;;;;4.30;1.38;;;20.20;99.40;;;;;;4589259;19;20074;-26
2023/05/30 00:05:59;;;;;;;3.90;1.85;;;20.20;99.40;;;;;;4587781;19;20329;-27
2023/05/30 00:07:31;;;;;;;3.63;1.20;;;20.20;99.40;;;;;;4588355;19;20014;-26
2023/05/30 00:09:02;;;;;;;2.65;1.35;;;20.20;99.40;;;;;;4589962;19;20023;-25
2023/05/30 00:10:33;;;;;;;3.08;1.70;;;20.20;99.40;;;;;;4590765;19;20045;-24
2023/05/30 00:12:06;;;;;;;4.50;1.42;;;20.20;99.40;;;;;;4590067;19;20014;-25
2023/05/30 00:13:38;;;;;;;3.78;1.70;;;20.20;99.40;;;;;;4591356;19;20018;-24
2023/05/30 00:15:10;;;;;;;4.45;1.58;;;20.20;99.50;;;;;;4590330;19;20015;-25
2023/05/30 00:16:43;;;;;;;4.80;1.55;;;20.10;99.40;;;;;;4590353;19;20015;-28
2023/05/30 00:18:14;;;;;;;3.78;1.58;;;20.20;99.60;;;;;;4590891;19;20021;-30
2023/05/30 00:19:45;;;;;;;4.13;1.65;;;20.10;99.50;;;;;;4590964;19;20066;-24
2023/05/30 00:21:17;;;;;;;2.90;1.23;;;20.10;99.60;;;;;;4589164;19;20018;-29
2023/05/30 00:22:51;;;;;;;3.92;1.60;;;20.10;99.60;;;;;;4589837;19;20090;-25
2023/05/30 00:24:24;;;;;;;2.75;1.15;;;20.20;99.50;;;;;;4589449;19;20013;-23
2023/05/30 00:25:58;;;;;;;3.35;1.20;;;20.10;99.60;;;;;;4590021;19;20456;-26
2023/05/30 00:27:29;;;;;;;4.03;1.13;;;20.20;99.70;;;;;;4589010;19;20546;-25
2023/05/30 00:29:01;;;;;;;4.65;1.75;;;20.10;99.70;;;;;;4589754;19;20011;-28
2023/05/30 00:30:33;;;;;;;4.30;1.60;;;20.10;99.70;;;;;;4589854;19;20015;-24
2023/05/30 00:32:05;;;;;;;3.88;1.30;;;20.10;99.80;;;;;;4590374;19;20011;-24
2023/05/30 00:33:36;;;;;;;5.70;2.78;;;20.10;99.90;;;;;;4588994;19;20038;-27
2023/05/30 00:35:08;;;;;;;3.20;1.50;;;20.10;99.90;;;;;;4588946;19;20025;-24
2023/05/30 00:36:39;;;;;;;4.47;1.40;;;20.10;99.90;;;;;;4590373;19;20009;-24
2023/05/30 00:38:11;;;;;;;3.85;1.40;;;20.10;99.90;;;;;;4588875;19;20018;-28
2023/05/30 00:39:42;;;;;;;5.30;1.95;;;20.10;99.90;;;;;;4589360;19;20019;-28
2023/05/30 00:41:14;;;;;;;4.65;1.42;;;20.10;99.90;;;;;;4590449;19;20019;-24
2023/05/30 00:42:45;;;;;;;3.88;1.52;;;20.10;99.90;;;;;;4590898;19;19998;-26
2023/05/30 00:44:17;;;;;;;5.82;2.05;;;20.10;99.90;;;;;;4589896;19;20006;-25
2023/05/30 00:45:50;;;;;;;;;;;20.10;99.90;;;;;;4589829;19;20019;-24
2023/05/30 00:47:21;;;;;;;5.50;1.88;;;20.10;99.90;;;;;;4589582;19;19923;-26
2023/05/30 00:48:52;;;;;;;6.75;1.90;;;20.10;99.90;;;;;;4589181;19;20011;-23
2023/05/30 00:50:26;;;;;;;3.33;1.30;;;20.00;99.90;;;;;;4588681;19;20019;-25
2023/05/30 00:51:57;;;;;;;3.30;1.25;;;20.10;99.90;;;;;;4589188;19;20007;-23
2023/05/30 00:53:31;;;;;;;3.78;1.45;;;20.00;99.90;;;;;;4588830;19;20006;-25
2023/05/30 00:55:03;;;;;;;6.10;1.55;;;20.00;99.90;;;;;;4588726;19;20085;-25
2023/05/30 00:56:35;;;;;;;5.68;2.13;;;20.10;99.90;;;;;;4588577;19;20019;-23
2023/05/30 00:58:06;;;;;;;3.20;1.50;;;20.10;99.90;;;;;;4588815;19;20090;-30
2023/05/30 00:59:39;;;;;;;5.47;1.60;;;20.00;99.90;;;;;;4589100;19;20019;-24
2023/05/30 01:01:12;;;;;;;4.78;1.60;;;20.10;99.90;;;;;;4589345;19;20385;-27
2023/05/30 01:02:44;;;;;;;3.58;1.40;;;20.00;99.90;;;;;;4589702;19;20066;-25
2023/05/30 01:04:18;;;;;;;4.30;1.27;;;20.10;99.90;;;;;;4588688;19;20078;-24
2023/05/30 01:05:49;;;;;;;4.45;1.55;;;20.00;99.90;;;;;;4589708;19;20062;-28
2023/05/30 01:07:20;;;;;;;4.65;1.92;;;20.10;99.90;;;;;;4588137;19;20039;-27
2023/05/30 01:08:52;;;;;;;5.18;1.92;;;20.10;99.90;;;;;;4588361;19;20015;-24
2023/05/30 01:10:23;;;;;;;4.75;1.88;;;20.00;99.90;;;;;;4589405;19;20026;-28
2023/05/30 01:12:11;;;;;;;5.18;1.55;;;20.00;99.90;;;;;;4589762;19;20460;-25
2023/05/30 01:14:04;;;;;;;4.05;1.60;;;20.10;99.90;;;;;;4589628;19;20082;-28
2023/05/30 01:15:48;;;;;;;4.47;1.67;;;20.00;99.90;;;;;;4588350;19;20053;-24
2023/05/30 01:18:03;;;;;;;3.80;1.38;;;20.00;99.90;;;;;;4592060;19;20021;-24
2023/05/30 01:19:48;;;;;;;2.38;1.20;;;20.00;99.90;;;;;;4591871;19;20338;-24
2023/05/30 01:21:21;;;;;;;5.00;1.67;;;20.00;99.90;;;;;;4591661;19;20011;-25
2023/05/30 01:23:15;;;;;;;5.03;1.70;;;20.00;99.90;;;;;;4592263;19;20098;-24
2023/05/30 01:25:24;;;;;;;5.07;1.48;;;20.00;99.90;;;;;;4592345;19;20089;-24
2023/05/30 01:27:18;;;;;;;5.07;1.63;;;20.00;99.90;;;;;;4591502;19;20003;-27
2023/05/30 01:28:51;;;;;;;4.00;1.38;;;20.10;99.90;;;;;;4591568;19;20025;-23
2023/05/30 01:30:24;;;;;;;5.25;1.40;;;20.00;99.90;;;;;;4591796;19;20017;-24
2023/05/30 01:31:57;;;;;;;3.30;1.40;;;20.00;99.90;;;;;;4591223;19;20011;-24
2023/05/30 01:33:29;;;;;;;4.85;1.50;;;20.00;99.90;;;;;;4591364;19;20018;-25
2023/05/30 01:35:03;;;;;;;3.35;1.42;;;20.00;99.90;;;;;;4592120;19;20002;-25
2023/05/30 01:36:35;;;;;;;5.05;2.08;;;20.00;99.90;;;;;;4591367;19;20058;-25
2023/05/30 01:38:07;;;;;;;5.55;1.52;;;20.00;99.90;;;;;;4591417;19;20022;-26
2023/05/30 01:39:39;;;;;;;4.65;1.98;;;20.00;99.90;;;;;;4591416;19;20014;-27
2023/05/30 01:41:39;;;;;;;3.15;1.45;;;20.00;99.90;;;;;;4591820;19;20011;-24
2023/05/30 01:43:31;;;;;;;3.17;1.58;;;20.00;99.90;;;;;;4591285;19;19999;-25
2023/05/30 01:45:08;;;;;;;4.72;1.40;;;20.00;99.90;;;;;;4591429;19;20024;-24
2023/05/30 01:46:43;;;;;;;4.20;1.83;;;20.00;99.90;;;;;;4590828;19;20014;-24
2023/05/30 01:48:21;;;;;;;4.45;1.58;;;20.00;99.90;;;;;;4591058;19;20018;-26
2023/05/30 01:49:58;;;;;;;6.57;2.08;;;19.90;99.90;;;;;;4591139;19;20011;-25
2023/05/30 01:51:35;;;;;;;4.72;1.65;;;19.90;99.90;;;;;;4590801;19;20007;-27
2023/05/30 01:53:11;;;;;;;4.03;1.67;;;19.90;99.90;;;;;;4589467;19;20097;-24
2023/05/30 01:54:46;;;;;;;4.68;2.00;;;19.90;99.90;;;;;;4591175;19;20015;-29
2023/05/30 01:56:18;;;;;;;3.53;1.58;;;19.90;99.90;;;;;;4590906;19;20497;-29
2023/05/30 01:57:50;;;;;;;4.22;1.65;;;19.90;99.90;;;;;;4591272;19;20007;-27
2023/05/30 01:59:23;;;;;;;4.15;1.60;;;19.90;99.90;;;;;;4590840;19;20046;-25
2023/05/30 02:00:55;;;;;;;5.47;2.03;;;19.90;99.90;;;;;;4590715;19;20094;-24
2023/05/30 02:02:27;;;;;;;5.47;1.85;;;19.90;99.90;;;;;;4591014;19;20106;-27
2023/05/30 02:04:00;;;;;;;6.40;1.90;;;19.90;99.90;;;;;;4590715;19;20011;-28
2023/05/30 02:05:32;;;;;;;3.72;1.67;;;19.90;99.90;;;;;;4590466;19;20011;-29
2023/05/30 02:07:03;;;;;;;;;;;19.90;99.90;;;;;;4590628;19;20010;-30
2023/05/30 02:08:34;;;;;;;4.65;2.00;;;19.90;99.90;;;;;;4590944;19;19915;-24
2023/05/30 02:10:07;;;;;;;5.05;2.03;;;19.90;99.90;;;;;;4591538;19;19998;-26
2023/05/30 02:11:38;;;;;;;5.45;2.30;;;19.90;99.90;;;;;;4590497;19;20019;-24
2023/05/30 02:13:10;;;;;;;;;;;19.90;99.90;;;;;;4590228;19;20011;-24
2023/05/30 02:14:43;;;;;;;7.72;2.17;;;19.90;99.90;;;;;;4590843;19;19907;-23
2023/05/30 02:16:18;;;;;;;5.57;2.63;;;19.90;99.90;;;;;;4590723;19;20036;-26
2023/05/30 02:17:49;;;;;;;6.30;2.47;;;19.90;99.90;;;;;;4590423;19;20589;-24
2023/05/30 02:19:21;;;;;;;5.70;2.70;;;19.80;99.90;;;;;;4590314;19;20014;-25
2023/05/30 02:20:54;;;;;;;4.60;2.10;;;19.80;99.90;;;;;;4591335;19;20007;-26
2023/05/30 02:22:25;;;;;;;5.05;2.33;;;19.80;99.90;;;;;;4592395;19;20010;-24
2023/05/30 02:23:57;;;;;;;4.60;2.45;;;19.80;99.90;;;;;;4592805;19;20006;-23
2023/05/30 02:25:29;;;;;;;5.93;2.60;;;19.80;99.90;;;;;;4592642;19;20074;-26
2023/05/30 02:27:02;;;;;;;8.13;3.40;;;19.80;99.90;;;;;;4593244;19;20013;-29
2023/05/30 02:28:33;;;;;;;8.52;3.80;;;19.80;99.90;;;;;;4590437;19;20007;-24
2023/05/30 02:30:05;;;;;;;6.75;3.63;;;19.80;99.90;;;;;;4592855;19;20022;-29
2023/05/30 02:31:36;;;;;;;8.23;3.15;;;19.80;99.90;;;;;;4592783;19;20027;-27
2023/05/30 02:33:12;;;;;;;6.38;2.70;;;19.80;99.90;;;;;;4591647;19;20014;-29
2023/05/30 02:34:44;;;;;;;4.45;1.90;;;19.80;99.90;;;;;;4591347;19;20010;-25
2023/05/30 02:36:15;;;;;;;5.75;2.42;;;19.80;99.90;;;;;;4592020;19;20006;-23
2023/05/30 02:37:47;;;;;;;6.63;2.25;;;19.80;99.90;;;;;;4592700;19;20027;-25
2023/05/30 02:39:19;;;;;;;;;;;19.80;99.90;;;;;;4593466;19;20022;-25
2023/05/30 02:40:50;;;;;;;7.57;2.70;;;19.80;99.90;;;;;;4592287;19;20024;-29
2023/05/30 02:42:21;;;;;;;5.15;3.00;;;19.80;99.90;;;;;;4592781;19;20003;-24
2023/05/30 02:43:52;;;;;;;8.95;4.32;;;19.80;99.90;;;;;;4592802;19;20006;-24
2023/05/30 02:45:23;;;;;;;7.25;4.45;;;19.70;99.90;;;;;;4592116;19;20038;-25
2023/05/30 02:46:56;;;;;;;7.40;4.32;;;19.80;99.90;;;;;;4592367;19;20350;-26
2023/05/30 02:48:28;;;;;;;8.75;4.72;;;19.80;99.90;;;;;;4592278;19;20019;-24
2023/05/30 02:49:59;;;;;;;7.57;3.90;;;19.80;99.90;;;;;;4592366;19;20046;-29
2023/05/30 02:51:31;;;;;;;7.78;3.67;;;19.80;99.90;;;;;;4590878;19;20070;-25
2023/05/30 02:53:03;;;;;;;;;;;19.80;99.90;;;;;;4591271;19;20416;-24
2023/05/30 02:54:34;;;;;;;6.30;3.08;;;19.80;99.90;;;;;;4592626;19;19974;-25
2023/05/30 02:56:06;;;;;;;6.78;3.55;;;19.80;99.90;;;;;;4592712;19;20014;-24
2023/05/30 02:57:38;;;;;;;6.65;3.45;;;19.80;99.90;;;;;;4590727;19;20396;-25
2023/05/30 02:59:09;;;;;;;5.63;3.00;;;19.70;99.90;;;;;;4591791;19;20033;-24
2023/05/30 03:00:42;;;;;;;8.90;3.30;;;19.80;99.90;;;;;;4592358;19;20397;-24
2023/05/30 03:02:14;;;;;;;6.97;2.85;;;19.80;99.90;;;;;;4592855;19;20005;-24
2023/05/30 03:03:45;;;;;;;6.07;2.90;;;19.80;99.90;;;;;;4592033;19;20472;-24
2023/05/30 03:05:19;;;;;;;6.68;3.22;;;19.80;99.90;;;;;;4590853;19;20047;-24
2023/05/30 03:06:51;;;;;;;5.53;2.30;;;19.80;99.90;;;;;;4590051;19;20031;-23
2023/05/30 03:08:23;;;;;;;4.88;2.00;;;19.80;99.90;;;;;;4590982;19;20023;-24
2023/05/30 03:09:55;;;;;;;5.63;1.77;;;19.80;99.90;;;;;;4591092;19;20006;-23
2023/05/30 03:11:26;;;;;;;;;;;19.80;99.90;;;;;;4591848;19;20049;-23
2023/05/30 03:12:57;;;;;;;5.18;2.08;;;19.80;99.90;;;;;;4590581;19;19915;-23
2023/05/30 03:14:30;;;;;;;4.38;2.15;;;19.70;99.90;;;;;;4591444;19;20011;-27
2023/05/30 03:16:02;;;;;;;3.33;1.65;;;19.80;99.90;;;;;;4589203;19;20018;-24
2023/05/30 03:17:33;;;;;;;4.43;1.63;;;19.70;99.90;;;;;;4590637;19;20015;-24
2023/05/30 03:19:05;;;;;;;4.82;1.73;;;19.80;99.90;;;;;;4591282;19;20361;-30
2023/05/30 03:20:37;;;;;;;2.95;1.45;;;19.80;99.90;;;;;;4590179;19;20018;-26
2023/05/30 03:22:08;;;;;;;4.32;1.52;;;19.80;99.90;;;;;;4590176;19;20017;-24
2023/05/30 03:23:39;;;;;;;3.72;1.80;;;19.80;99.90;;;;;;4590287;19;20039;-30
2023/05/30 03:25:12;;;;;;;;;;;19.70;99.90;;;;;;4592609;19;20010;-26
2023/05/30 03:26:43;;;;;;;7.28;3.42;;;19.70;99.90;;;;;;4591303;19;20367;-24
2023/05/30 03:28:15;;;;;;;7.15;3.03;;;19.70;99.90;;;;;;4591829;19;20011;-25
2023/05/30 03:29:47;;;;;;;7.78;3.58;;;19.70;99.90;;;;;;4592071;19;20022;-24
2023/05/30 03:31:20;;;;;;;7.22;3.13;;;19.70;99.90;;;;;;4590765;19;19998;-22
2023/05/30 03:32:56;;;;;;;5.60;2.45;;;19.80;99.90;;;;;;4589690;19;20014;-27
2023/05/30 03:34:30;;;;;;;7.63;3.13;;;19.80;99.90;;;;;;4591393;19;20007;-24
2023/05/30 03:36:02;;;;;;;6.07;2.97;;;19.80;99.90;;;;;;4590848;19;20010;-23
2023/05/30 03:37:33;;;;;;;6.90;3.25;;;19.80;99.90;;;;;;4591822;19;20017;-26
2023/05/30 03:39:06;;;;;;;9.35;3.50;;;19.90;99.90;;;;;;4590624;19;20018;-25
2023/05/30 03:40:37;;;;;;;6.63;3.55;;;19.90;99.90;;;;;;4591404;19;20010;-25
2023/05/30 03:42:09;;;;;;;8.10;3.60;;;19.90;99.90;;;;;;4590898;19;20039;-25
2023/05/30 03:43:41;;;;;;;7.20;2.95;;;19.90;99.90;;;;;;4590871;19;20070;-23
2023/05/30 03:45:13;;;;;;;6.28;3.33;;;20.00;99.90;;;;;;4589976;19;20021;-24
2023/05/30 03:46:44;;;;;;;6.28;2.95;;;20.00;99.90;;;;;;4589907;19;20014;-24
2023/05/30 03:48:16;;;;;;;7.65;3.78;;;20.00;99.90;;;;;;4591011;19;20006;-26
2023/05/30 03:49:47;;;;;;;7.00;2.75;;;20.10;99.90;;;;;;4590797;19;20021;-29
2023/05/30 03:51:20;;;;;;;6.57;2.60;;;20.20;99.90;;;;;;4589481;19;20011;-25
2023/05/30 03:52:52;;;;;;;6.85;3.03;;;20.30;99.90;;;;;;4590054;19;20007;-26
2023/05/30 03:54:23;;;;;;;5.75;2.72;;;20.40;99.90;;;;;;4592884;19;20014;-24
2023/05/30 03:55:54;;;;;;;6.50;3.65;;;20.50;99.90;;;;;;4590766;19;20022;-25
2023/05/30 03:57:26;;;;;;;6.75;2.90;;;20.60;99.90;;;;;;4590898;19;20025;-26
2023/05/30 03:58:58;;;;;;;4.82;2.35;;;20.60;99.90;;;;;;4589826;19;20006;-27
2023/05/30 04:00:31;;;;;;;4.95;2.35;;;20.70;99.90;;;;;;4592516;19;20369;-29
2023/05/30 04:02:02;;;;;;;;;;;20.70;99.80;;;;;;4593459;19;20021;-25
2023/05/30 04:03:35;;;;;;;6.43;2.58;;;20.80;99.60;;;;;;4592974;19;19918;-24
2023/05/30 04:05:07;;;;;;;5.22;3.22;;;20.80;99.80;;;;;;4592522;19;20014;-24
2023/05/30 04:06:39;;;;;;;5.43;2.83;;;20.80;99.70;;;;;;4592180;19;20082;-25
2023/05/30 04:08:14;;;;;;;5.20;2.90;;;20.80;99.70;;;;;;4592903;19;20014;-25
2023/05/30 04:09:45;;;;;;;;;;;20.80;99.90;;;;;;4592071;19;20109;-25
2023/05/30 04:11:16;;;;;;;5.22;2.55;;;20.80;99.50;;;;;;4590868;19;19926;-29
2023/05/30 04:12:48;;;;;;;;;;;20.90;99.80;;;;;;4589608;19;20011;-24
2023/05/30 04:14:19;;;;;;;7.88;3.20;;;20.90;99.90;;;;;;4590305;19;19925;-25
2023/05/30 04:15:50;;;;;;;6.93;3.15;;;21.10;99.90;;;;;;4590887;19;20062;-25
2023/05/30 04:17:24;;;;;;;7.50;2.53;;;21.20;99.90;;;;;;4590627;19;20478;-27
2023/05/30 04:18:56;;;;;;;6.55;3.40;;;21.40;99.90;;;;;;4591547;19;20021;-25
2023/05/30 04:20:28;;;;;;;4.97;2.60;;;21.30;99.40;;;;;;4589858;19;20329;-23
2023/05/30 04:22:00;;;;;;;4.70;2.88;;;21.20;99.40;;;;;;4590344;19;20341;-23
2023/05/30 04:23:33;;;;;;;5.43;2.42;;;21.10;99.60;;;;;;4589691;19;20046;-24
2023/05/30 04:25:05;;;;;;;7.10;3.05;;;21.00;99.70;;;;;;4587710;19;20367;-27
2023/05/30 04:26:37;;;;;;;6.28;2.78;;;20.90;99.90;;;;;;4590465;19;20070;-23
2023/05/30 04:28:08;;;;;;;6.00;3.38;;;20.80;99.90;;;;;;4590385;19;20019;-28
2023/05/30 04:29:40;;;;;;;;;;;20.80;99.90;;;;;;4591974;19;20005;-25
2023/05/30 04:31:11;;;;;;;6.10;3.25;;;20.80;99.90;;;;;;4589777;19;19918;-27
2023/05/30 04:32:45;;;;;;;4.47;2.50;;;20.80;99.90;;;;;;4588309;19;20015;-23
2023/05/30 04:34:17;;;;;;;5.18;2.53;;;20.70;99.90;;;;;;4590385;19;20006;-29
2023/05/30 04:35:50;;;;;;;4.63;2.15;;;20.70;99.90;;;;;;4590377;19;20010;-26
2023/05/30 04:37:23;;;;;;;4.68;2.00;;;20.70;99.90;;;;;;4590018;19;20078;-26
2023/05/30 04:38:55;;;;;;;3.80;1.83;;;20.70;99.90;;;;;;4590158;19;20038;-24
2023/05/30 04:40:27;;;;;;;4.72;2.15;;;20.70;99.90;;;;;;4590630;19;20006;-24
2023/05/30 04:41:59;;;;;;;5.85;2.10;;;20.70;99.90;;;;;;4589916;19;19999;-25
2023/05/30 04:43:31;;;;;;;5.82;2.10;;;20.80;99.90;;;;;;4590106;19;20014;-25
2023/05/30 04:45:04;;;;;;;4.55;2.10;;;20.90;99.90;;;;;;4590364;19;20360;-23
2023/05/30 04:46:36;;;;;;;4.75;1.88;;;20.90;99.90;;;;;;4590183;19;20431;-25
2023/05/30 04:48:09;;;;;;;5.53;2.10;;;21.00;99.90;;;;;;4588613;19;20018;-27
2023/05/30 04:49:41;;;;;;;3.92;1.80;;;21.10;99.90;;;;;;4589788;19;20040;-25
2023/05/30 04:51:12;;;;;;;6.68;2.13;;;21.20;99.90;;;;;;4590641;19;20002;-29
2023/05/30 04:52:44;;;;;;;5.30;2.22;;;21.30;99.90;;;;;;4593867;19;20018;-25
2023/05/30 04:54:15;;;;;;;6.05;2.55;;;21.30;99.90;;;;;;4594529;19;20015;-25
2023/05/30 04:55:47;;;;;;;5.00;1.85;;;21.40;99.90;;;;;;4594263;19;20017;-25
2023/05/30 04:57:19;;;;;;;4.53;2.63;;;21.40;99.90;;;;;;4593223;19;20014;-24
2023/05/30 04:58:51;;;;;;;5.03;1.98;;;21.50;99.90;;;;;;4593713;19;20003;-24
2023/05/30 05:00:23;;;;;;;5.80;2.03;;;21.50;99.90;;;;;;4593790;19;20026;-26
2023/05/30 05:01:54;;;;;;;4.93;2.13;;;21.60;99.90;;;;;;4594365;19;20018;-23
2023/05/30 05:03:27;;;;;;;5.10;2.33;;;21.60;99.90;;;;;;4594389;19;20002;-23
2023/05/30 05:04:58;;;;;;;4.97;2.20;;;21.60;99.90;;;;;;4595255;19;20452;-23
2023/05/30 05:06:31;;;;;;;6.53;2.00;;;21.70;99.90;;;;;;4593026;19;20480;-22
2023/05/30 05:08:02;;;;;;;4.25;1.73;;;21.70;99.90;;;;;;4592530;19;20350;-23
2023/05/30 05:09:33;;;;;;;5.03;1.98;;;21.80;99.90;;;;;;4594466;19;20038;-27
2023/05/30 05:11:06;;;;;;;4.40;1.80;;;21.80;99.90;;;;;;4594156;19;20018;-24
2023/05/30 05:12:39;;;;;;;6.00;2.22;;;21.90;99.90;;;;;;4592624;19;20070;-21
2023/05/30 05:14:12;;;;;;;4.40;1.80;;;21.90;99.90;;;;;;4592946;19;20035;-23
2023/05/30 05:15:45;;;;;;;4.25;1.80;;;22.00;99.90;;;;;;4594271;19;20002;-25
2023/05/30 05:17:16;;;;;;;4.38;1.73;;;22.00;99.60;;;;;;4591459;19;20113;-25
2023/05/30 05:18:49;;;;;;;4.55;1.80;;;22.00;99.80;;;;;;4592643;19;20034;-23
2023/05/30 05:20:21;;;;;;;3.72;1.85;;;22.00;99.90;;;;;;4593184;19;20519;-22
2023/05/30 05:21:52;;;;;;;3.70;1.73;;;22.00;99.70;;;;;;4593454;19;20002;-25
2023/05/30 05:23:23;;;;;;;4.03;1.80;;;22.00;99.60;;;;;;4593599;19;20019;-25
2023/05/30 05:24:55;;;;;;;4.97;2.00;;;22.00;99.90;;;;;;4594500;19;20022;-28
2023/05/30 05:26:27;;;;;;;4.97;1.80;;;22.00;99.90;;;;;;4594191;19;20002;-26
2023/05/30 05:27:59;;;;;;;6.30;2.30;;;22.00;99.60;;;;;;4593156;19;20062;-22
2023/05/30 05:29:32;;;;;;;3.60;1.77;;;21.90;99.90;;;;;;4592762;19;20471;-21
2023/05/30 05:31:03;;;;;;;;;;;21.90;99.70;;;;;;4593247;19;20014;-23
2023/05/30 05:32:37;;;;;;;4.17;2.13;;;21.90;99.60;;;;;;4592997;19;20236;-23
2023/05/30 05:34:08;;;;;;;4.30;2.10;;;21.90;99.80;;;;;;4593500;19;20472;-26
2023/05/30 05:35:41;;;;;;;5.78;2.30;;;21.80;99.80;;;;;;4592866;19;20016;-25
2023/05/30 05:37:12;;;;;;;5.22;2.15;;;21.80;99.80;;;;;;4592848;19;20356;-25
2023/05/30 05:38:45;;;;;;;3.38;1.77;;;21.80;99.80;;;;;;4593695;19;20007;-26
2023/05/30 05:40:19;;;;;;;5.03;1.90;;;21.80;99.90;;;;;;4593526;19;20345;-27
2023/05/30 05:41:51;;;;;;;3.17;1.70;;;21.70;99.90;;;;;;4593809;19;20015;-23
2023/05/30 05:43:24;;;;;;;5.18;1.92;;;21.70;99.90;;;;;;4594033;19;20373;-23
2023/05/30 05:44:57;;;;;;;7.55;2.53;;;21.70;99.90;;;;;;4570333;19;20010;-26
2023/05/30 05:46:30;;;;;;;5.30;2.20;;;21.70;99.90;;;;;;4591892;19;20011;-23
2023/05/30 05:48:02;;;;;;;6.32;2.30;;;21.70;99.90;;;;;;4593488;19;20019;-22
2023/05/30 05:49:33;;;;;;;;;;;21.70;99.90;;;;;;4594408;19;20045;-23
2023/05/30 05:51:04;;;;;;;6.50;2.23;;;21.80;99.90;;;;;;4593720;19;19915;-22
2023/05/30 05:52:36;;;;;;;5.10;1.70;;;21.80;99.90;;;;;;4591427;19;20078;-23
2023/05/30 05:54:07;;;;;;;5.72;1.92;;;21.70;99.90;;;;;;4592265;19;20386;-28
2023/05/30 05:55:40;;;;;;;5.43;1.85;;;21.80;99.90;;;;;;4593427;19;20191;-26
2023/05/30 05:57:12;;;;;;;6.43;2.10;;;21.70;99.90;;;;;;4594057;19;20011;-27
2023/05/30 05:58:44;;;;;;;5.50;1.90;;;21.70;99.90;;;;;;4593204;19;20019;-26
2023/05/30 06:00:20;;;;;;;5.32;1.95;;;21.70;99.90;;;;;;4593364;19;20014;-22
2023/05/30 06:01:53;;;;;;;6.35;1.98;;;21.70;99.90;;;;;;4593279;19;20021;-26
2023/05/30 06:03:25;;;;;;;6.30;1.92;;;21.70;99.90;;;;;;4588973;19;20027;-22
2023/05/30 06:04:56;;;;;;;;;;;21.70;99.90;;;;;;4593469;19;20402;-23
2023/05/30 06:06:27;;;;;;;4.65;2.10;;;21.70;99.80;;;;;;4592983;19;19911;-22
2023/05/30 06:08:00;;;;;;;4.50;1.85;;;21.60;99.90;;;;;;4590749;19;20039;-25
2023/05/30 06:09:34;;;;;;;4.30;1.70;;;21.60;99.90;;;;;;4592727;19;20019;-22
2023/05/30 06:11:05;;;;;;;5.30;1.65;;;21.60;99.90;;;;;;4591843;19;20006;-25
2023/05/30 06:12:37;;;;;;;5.13;1.98;;;21.60;99.90;;;;;;4592147;19;20015;-22
2023/05/30 06:14:08;;;;;;;5.38;1.70;;;21.60;99.60;;;;;;4593327;19;19995;-26
2023/05/30 06:15:39;;;;;;;5.43;1.77;;;21.60;99.60;;;;;;4592900;19;20014;-22
2023/05/30 06:17:13;;;;;;;4.53;1.75;;;21.70;99.90;;;;;;4592911;19;20011;-27
2023/05/30 06:18:46;;;;;;;4.80;1.60;;;21.70;99.70;;;;;;4593345;19;20018;-26
2023/05/30 06:20:18;;;;;;;5.45;1.70;;;21.70;99.70;;;;;;4593025;19;20477;-23
2023/05/30 06:21:51;;;;;;;4.90;1.67;;;21.80;99.80;;;;;;4592583;19;20010;-23
2023/05/30 06:23:24;;;;;;;4.38;1.58;;;21.80;99.60;;;;;;4591602;19;20058;-27
2023/05/30 06:24:56;;;;;;;6.18;1.85;;;21.80;99.50;;;;;;4592259;19;20014;-24
2023/05/30 06:26:27;;;;;;;;;;;21.70;99.10;;;;;;4594169;19;20457;-25
2023/05/30 06:27:58;;;;;;;4.40;1.77;;;21.60;99.00;;;;;;4591490;19;19970;-23
2023/05/30 06:29:29;;;;;;;3.47;1.25;;;21.60;99.30;;;;;;4592999;19;20019;-25
2023/05/30 06:31:01;;;;;;;3.83;1.80;;;21.50;99.20;;;;;;4591915;19;20009;-26
2023/05/30 06:32:33;;;;;;;4.25;1.45;;;21.60;99.30;;;;;;4592322;19;20003;-22
2023/05/30 06:34:06;;;;;;;3.45;1.33;;;21.50;99.20;;;;;;4592639;19;20019;-26
2023/05/30 06:35:39;;;;;;;4.15;1.60;;;21.50;99.10;;;;;;4590036;19;20469;-23
2023/05/30 06:37:13;;;;;;;3.55;1.80;;;20.80;97.90;;;;;;4592692;19;20081;-22
2023/05/30 06:38:45;;;;;;;6.40;2.22;;;18.60;99.90;;;;;;4592988;19;20473;-23
2023/05/30 06:40:17;;;;;;;4.72;1.95;;;17.40;99.90;;;;;;4592219;19;20018;-24
2023/05/30 06:41:48;;;;;;;4.88;2.20;;;16.80;99.90;;;;;;4592552;19;20022;-23
2023/05/30 06:43:20;;;;;;;;;;;16.40;99.90;;;;;;4594131;19;20007;-23
2023/05/30 06:44:51;;;;;;;4.30;2.00;;;16.20;99.90;;;;;;4592220;19;19915;-24
2023/05/30 06:46:22;;;;;;;6.25;2.80;;;16.10;99.90;;;;;;4592368;19;20045;-24
2023/05/30 06:47:53;;;;;;;4.60;2.10;;;16.00;99.90;;;;;;4592720;19;20025;-22
2023/05/30 06:49:25;;;;;;;4.35;1.77;;;16.00;99.90;;;;;;4592503;19;20010;-25
2023/05/30 06:50:58;;;;;;;5.15;2.15;;;16.00;99.90;;;;;;4592112;19;20345;-25
2023/05/30 06:52:30;;;;;;;;;;;16.00;99.90;;;;;;4592578;19;20018;-25
2023/05/30 06:54:01;;;;;;;4.57;2.10;;;15.90;99.90;;;;;;4591464;19;19918;-26
2023/05/30 06:55:34;;;;;;;5.35;2.08;;;15.90;99.90;;;;;;4592419;19;20006;-28
2023/05/30 06:57:07;;;;;;;5.93;2.72;;;16.00;99.90;;;;;;4592062;19;20045;-24
2023/05/30 06:58:39;;;;;;;4.15;2.03;;;16.00;99.90;;;;;;4591773;19;20007;-25
2023/05/30 07:00:11;;;;;;;;;;;16.00;99.90;;;;;;4593367;19;20006;-23
2023/05/30 07:01:45;;;;;;;5.97;2.30;;;16.00;99.90;;;;;;4592600;19;19949;-27
2023/05/30 07:03:16;;;;;;;4.68;1.83;;;16.00;99.90;;;;;;4592011;19;20007;-25
2023/05/30 07:04:48;;;;;;;5.90;2.28;;;16.00;99.90;;;;;;4591935;19;20497;-25
2023/05/30 07:06:20;;;;;;;4.78;1.90;;;16.00;99.90;;;;;;4592046;19;20030;-25
2023/05/30 07:07:51;;;;;;;5.65;2.00;;;16.00;99.90;;;;;;4589161;19;20018;-24
2023/05/30 07:09:23;;;;;;;4.82;1.90;;;16.00;99.90;;;;;;4591495;19;20353;-24
2023/05/30 07:10:56;;;;;;;4.63;2.38;;;16.00;99.90;;;;;;4588696;19;20021;-26
2023/05/30 07:12:27;;;;;;;4.75;2.00;;;16.00;99.90;;;;;;4589584;19;20017;-27
2023/05/30 07:14:00;;;;;;;5.38;2.00;;;16.00;99.90;;;;;;4590757;19;20393;-23
2023/05/30 07:15:32;;;;;;;4.90;1.90;;;16.00;99.90;;;;;;4592073;19;20046;-28
2023/05/30 07:17:07;;;;;;;6.03;2.47;;;16.00;99.90;;;;;;4591209;19;20021;-25
2023/05/30 07:18:38;;;;;;;3.85;1.60;;;16.00;99.90;;;;;;4592236;19;20496;-25
2023/05/30 07:20:10;;;;;;;4.20;1.95;;;16.00;99.90;;;;;;4591210;19;20014;-27
2023/05/30 07:21:41;;;;;;;4.60;1.70;;;16.00;99.90;;;;;;4590239;19;20019;-24
2023/05/30 07:23:14;;;;;;;4.53;1.95;;;16.10;99.90;;;;;;4590262;19;20062;-25
2023/05/30 07:24:45;;;;;;;4.03;1.55;;;16.10;99.90;;;;;;4591164;19;20018;-25
2023/05/30 07:26:17;;;;;;;;;;;16.10;99.90;;;;;;4591960;19;20010;-26
2023/05/30 07:27:48;;;;;;;5.28;2.05;;;16.10;99.90;;;;;;4591557;19;19927;-28
2023/05/30 07:29:20;;;;;;;5.28;1.83;;;16.10;99.90;;;;;;4591093;19;20388;-24
2023/05/30 07:30:54;;;;;;;5.80;1.98;;;16.10;99.90;;;;;;4589895;19;20060;-24
2023/05/30 07:32:27;;;;;;;5.13;2.28;;;16.10;99.90;;;;;;4589776;19;20346;-26
2023/05/30 07:33:59;;;;;;;3.63;1.80;;;16.10;99.90;;;;;;4590765;19;20476;-27
2023/05/30 07:35:32;;;;;;;4.13;1.88;;;16.10;99.90;;;;;;4588830;19;20022;-24
2023/05/30 07:37:04;;;;;;;;;;;16.10;99.90;;;;;;4590546;19;20010;-24
2023/05/30 07:38:36;;;;;;;5.18;2.13;;;16.10;99.90;;;;;;4590654;19;19926;-24
2023/05/30 07:40:07;;;;;;;;;;;16.10;99.90;;;;;;4591725;19;20018;-24
2023/05/30 07:41:39;;;;;;;4.63;2.00;;;16.10;99.90;;;;;;4591405;19;19919;-24
2023/05/30 07:43:11;;;;;;;4.40;1.60;;;16.20;99.90;;;;;;4590959;19;20011;-29
2023/05/30 07:44:45;;;;;;;3.78;1.70;;;16.20;99.90;;;;;;4591009;19;20006;-27
2023/05/30 07:46:16;;;;;;;4.32;1.60;;;16.20;99.90;;;;;;4591168;19;20010;-22
2023/05/30 07:47:47;;;;;;;3.90;1.63;;;16.20;99.90;;;;;;4589931;19;20010;-27
2023/05/30 07:49:19;;;;;;;3.15;1.42;;;16.20;99.90;;;;;;4590644;19;20347;-24
2023/05/30 07:50:52;;;;;;;4.85;1.38;;;16.20;99.90;;;;;;4590741;19;20014;-24
2023/05/30 07:52:24;;;;;;;7.78;1.88;;;16.20;99.90;;;;;;4588152;19;20490;-27
2023/05/30 07:53:56;;;;;;;5.10;1.85;;;16.20;99.90;;;;;;4589811;19;20014;-24
2023/05/30 07:55:30;;;;;;;5.15;1.95;;;16.20;99.90;;;;;;4589742;19;20026;-24
2023/05/30 07:57:06;;;;;;;3.88;1.42;;;16.20;99.90;;;;;;4589981;19;20019;-27
2023/05/30 07:58:37;;;;;;;3.67;1.80;;;16.30;99.90;;;;;;4589665;19;20017;-25
2023/05/30 08:00:10;;;;;;;3.78;1.58;;;16.30;99.90;;;;;;4590479;19;20015;-22
2023/05/30 08:01:45;;;;;;;4.82;1.75;;;16.30;99.90;;;;;;4589606;19;20021;-23
2023/05/30 08:03:17;;;;;;;4.53;1.60;;;16.30;99.90;;;;;;4590168;19;20018;-24
2023/05/30 08:04:50;;;;;;;3.90;2.00;;;16.30;99.90;;;;;;4591176;19;20002;-26
2023/05/30 08:06:22;;;;;;;5.20;2.15;;;16.30;99.90;;;;;;4591103;19;20021;-23
2023/05/30 08:07:53;;;;;;;3.60;1.40;;;16.40;99.90;;;;;;4588641;19;20479;-25